Madison, South Dakota
Current Conditions -  °F | °C
As of 8:15 AM on Friday 24 Oct 2014 (Local Time) from KMDS Reporting Station
Moderate Fog Moderate Fog  
Wind Chill: 39°   Ceiling: Unl
Heat Index: 39°   Visibility: 0mi
Dew Point: 39°   Wind: 3mph
Humidity: 100%   Direction: 310°NW
Pressure: 29.86"   Gusts: NA
Location:  44.01°N, 97.11°W
Report Text: KMDS 241315Z AUTO 31003KT M1/4SM FG VV000 04/04 A2986 RMK AO2
Loading
Personal Weather Stations






























Interactive Weather Map
Tropical Storm Tracking
New forecast layout! Learn more

10-Day Weather Forecast

Advertisements
Track Severe Weather on mobile